createdAt,value
2022-10-21T00:02:06.686Z,100513.86
2022-10-21T00:04:37.310Z,100511.03
2022-10-21T00:07:07.011Z,100508.63
2022-10-21T00:09:36.799Z,100501.56
2022-10-21T00:12:06.940Z,100503.54
2022-10-21T00:14:36.721Z,100507.58
2022-10-21T00:17:06.778Z,100512.30
2022-10-21T00:19:36.564Z,100503.94
2022-10-21T00:22:06.728Z,100501.34
2022-10-21T00:24:37.702Z,100479.81
2022-10-21T00:27:07.837Z,100479.81
2022-10-21T00:29:37.992Z,100482.65
2022-10-21T00:32:07.498Z,100477.69
2022-10-21T00:34:37.285Z,100466.28
2022-10-21T00:37:07.159Z,100458.45
2022-10-21T00:39:37.309Z,100450.98
2022-10-21T00:42:09.042Z,100444.17
2022-10-21T00:44:40.807Z,100438.61
2022-10-21T00:47:13.641Z,100434.78
2022-10-21T00:49:49.152Z,100447.19
2022-10-21T00:52:21.988Z,100441.16
2022-10-21T00:54:54.549Z,100442.50
2022-10-21T00:57:26.283Z,100440.14
2022-10-21T00:59:59.123Z,100436.81
2022-10-21T01:02:30.366Z,100434.32
2022-10-21T01:05:03.294Z,100426.40
2022-10-21T01:07:36.450Z,100413.78
2022-10-21T01:10:07.290Z,100406.52
2022-10-21T01:12:58.060Z,100404.85
2022-10-21T01:15:36.511Z,100400.38
2022-10-21T01:18:09.759Z,100389.72
2022-10-21T01:21:01.145Z,100389.72
2022-10-21T01:24:07.382Z,100388.30
2022-10-21T01:26:45.601Z,100393.72
2022-10-21T01:29:37.950Z,100390.43
2022-10-21T01:32:22.899Z,100399.53
2022-10-21T01:34:58.560Z,100402.63
2022-10-21T01:37:42.944Z,100404.24
2022-10-21T01:40:21.414Z,100403.92
2022-10-21T01:43:02.189Z,100400.77
2022-10-21T01:45:50.055Z,100400.21
2022-10-21T01:48:28.497Z,100411.98
2022-10-21T01:51:01.486Z,100407.73
2022-10-21T01:53:34.459Z,100405.38
2022-10-21T01:56:05.220Z,100411.45
2022-10-21T01:58:38.202Z,100392.75
2022-10-21T02:01:10.194Z,100392.75
2022-10-21T02:03:43.304Z,100401.00
2022-10-21T02:06:14.156Z,100404.33
2022-10-21T02:08:44.687Z,100404.79
2022-10-21T02:11:15.330Z,100402.44
2022-10-21T02:13:48.429Z,100406.23
2022-10-21T02:16:20.977Z,100400.54
2022-10-21T02:18:50.786Z,100393.53
2022-10-21T02:21:23.772Z,100399.44
2022-10-21T02:24:01.934Z,100400.33
2022-10-21T02:26:32.870Z,100400.27
2022-10-21T02:29:03.112Z,100403.66
2022-10-21T02:31:59.297Z,100397.45
2022-10-21T02:34:37.741Z,100391.81
2022-10-21T02:37:13.128Z,100393.52
2022-10-21T02:39:55.083Z,100383.19
2022-10-21T02:42:30.797Z,100383.58
2022-10-21T02:45:02.840Z,100380.63
2022-10-21T02:47:32.665Z,100372.91
2022-10-21T02:50:02.546Z,100375.92
2022-10-21T02:52:32.423Z,100390.43
2022-10-21T02:55:02.599Z,100382.53
2022-10-21T02:57:33.477Z,100375.42
2022-10-21T03:00:03.363Z,100370.71
2022-10-21T03:02:33.308Z,100376.95
2022-10-21T03:05:03.485Z,100374.08
2022-10-21T03:07:33.297Z,100369.97
2022-10-21T03:10:03.110Z,100363.35
2022-10-21T03:12:32.914Z,100369.30
2022-10-21T03:15:02.796Z,100354.23
2022-10-21T03:17:33.599Z,100352.83
2022-10-21T03:20:02.459Z,100346.35
2022-10-21T03:22:32.063Z,100336.47
2022-10-21T03:25:01.879Z,100343.58
2022-10-21T03:27:32.781Z,100337.12
2022-10-21T03:30:02.703Z,100332.41
2022-10-21T03:32:32.903Z,100332.06
2022-10-21T03:35:02.789Z,100332.06
2022-10-21T03:37:32.598Z,100338.24
2022-10-21T03:40:02.384Z,100332.84
2022-10-21T03:42:32.182Z,100326.13
2022-10-21T03:45:03.357Z,100321.60
2022-10-21T03:47:33.207Z,100323.03
2022-10-21T03:50:07.541Z,100307.75
2022-10-21T03:52:37.060Z,100324.55
2022-10-21T03:55:07.834Z,100319.34
2022-10-21T03:57:38.447Z,100327.41
2022-10-21T04:00:37.314Z,100321.89
2022-10-21T04:03:07.022Z,100320.69
2022-10-21T04:05:48.982Z,100315.05
2022-10-21T04:08:22.190Z,100317.58
2022-10-21T04:10:52.039Z,100311.48
2022-10-21T04:13:21.576Z,100305.52
2022-10-21T04:16:00.961Z,100306.15
2022-10-21T04:18:31.034Z,100305.97
2022-10-21T04:21:00.673Z,100302.31
2022-10-21T04:23:30.474Z,100296.81
2022-10-21T04:26:00.175Z,100290.19
2022-10-21T04:28:30.391Z,100293.58
2022-10-21T04:31:00.186Z,100279.68
2022-10-21T04:33:30.144Z,100265.70
2022-10-21T04:36:00.394Z,100264.59
2022-10-21T04:38:30.729Z,100274.64
2022-10-21T04:41:02.771Z,100256.33
2022-10-21T04:43:32.687Z,100250.61
2022-10-21T04:46:02.484Z,100253.41
2022-10-21T04:48:32.287Z,100251.50
2022-10-21T04:51:02.095Z,100249.38
2022-10-21T04:53:31.898Z,100240.77
2022-10-21T04:56:01.693Z,100226.06
2022-10-21T04:58:31.501Z,100228.05
2022-10-21T05:01:01.385Z,100223.34
2022-10-21T05:03:33.030Z,100215.28
2022-10-21T05:06:01.817Z,100212.16
2022-10-21T05:08:31.361Z,100202.66
2022-10-21T05:11:05.215Z,100190.83
2022-10-21T05:13:35.249Z,100180.31
2022-10-21T05:16:05.919Z,100180.31
2022-10-21T05:18:41.203Z,100175.64
2022-10-21T05:21:11.106Z,100167.39
2022-10-21T05:23:40.924Z,100167.39
2022-10-21T05:26:10.914Z,100167.64
2022-10-21T05:28:40.712Z,100167.64
2022-10-21T05:31:10.777Z,100151.89
2022-10-21T05:33:40.577Z,100151.89
2022-10-21T05:36:10.376Z,100154.79
2022-10-21T05:38:41.142Z,100148.31
2022-10-21T05:41:10.944Z,100138.27
2022-10-21T05:43:40.779Z,100134.31
2022-10-21T05:46:10.517Z,100130.58
2022-10-21T05:48:41.360Z,100123.92
2022-10-21T05:51:11.292Z,100128.80
2022-10-21T05:53:46.166Z,100121.58
2022-10-21T05:56:15.680Z,100117.55
2022-10-21T05:58:45.504Z,100114.91
2022-10-21T06:01:15.491Z,100113.13
2022-10-21T06:03:45.822Z,100108.83
2022-10-21T06:06:15.439Z,100099.06
2022-10-21T06:08:45.420Z,100094.36
2022-10-21T06:11:18.219Z,100086.92
2022-10-21T06:13:48.657Z,100109.30
2022-10-21T06:16:18.556Z,100110.59
2022-10-21T06:18:50.416Z,100096.31
2022-10-21T06:21:22.896Z,100103.34
2022-10-21T06:23:56.597Z,100103.34
2022-10-21T06:26:27.404Z,100102.16
2022-10-21T06:28:59.082Z,100098.40
2022-10-21T06:31:28.950Z,100094.13
2022-10-21T06:33:58.777Z,100091.04
2022-10-21T06:36:30.718Z,100097.46
2022-10-21T06:39:00.513Z,100089.00
2022-10-21T06:41:30.333Z,100089.55
2022-10-21T06:44:00.465Z,100096.80
2022-10-21T06:46:30.265Z,100091.48
2022-10-21T06:49:00.143Z,100095.16
2022-10-21T06:51:30.943Z,100088.14
2022-10-21T06:54:00.920Z,100073.83
2022-10-21T06:56:31.772Z,100073.18
2022-10-21T06:59:01.924Z,100099.06
2022-10-21T07:01:55.228Z,100099.06
2022-10-21T07:04:07.399Z,100101.66
2022-10-21T07:06:39.273Z,100089.59
2022-10-21T07:09:10.764Z,100100.34
2022-10-21T07:11:40.306Z,100100.34
2022-10-21T07:14:11.053Z,100099.34
2022-10-21T07:16:41.100Z,100099.72
2022-10-21T07:19:12.068Z,100100.05
2022-10-21T07:21:41.957Z,100095.42
2022-10-21T07:24:12.110Z,100097.08
2022-10-21T07:26:41.858Z,100096.01
2022-10-21T07:29:12.174Z,100098.61
2022-10-21T07:31:42.389Z,100091.39
2022-10-21T07:34:13.203Z,100075.73
2022-10-21T07:36:47.744Z,100097.92
2022-10-21T07:39:19.586Z,100102.31
2022-10-21T07:41:54.738Z,100103.63
2022-10-21T07:44:26.167Z,100094.52
2022-10-21T07:46:55.634Z,100107.16
2022-10-21T07:49:26.357Z,100103.66
2022-10-21T07:51:59.766Z,100117.58
2022-10-21T07:54:34.357Z,100112.97
2022-10-21T07:57:04.225Z,100111.37
2022-10-21T07:59:34.011Z,100104.23
2022-10-21T08:02:03.994Z,100107.08
2022-10-21T08:04:33.886Z,100112.67
2022-10-21T08:07:03.715Z,100100.52
2022-10-21T08:09:33.519Z,100079.62
2022-10-21T08:12:03.320Z,100079.62
2022-10-21T08:14:33.816Z,100094.36
2022-10-21T08:17:03.381Z,100086.78
2022-10-21T08:19:33.267Z,100078.23
2022-10-21T08:22:03.204Z,100078.23
2022-10-21T08:24:33.426Z,100092.33
2022-10-21T08:27:04.598Z,100083.75
2022-10-21T08:29:36.492Z,100083.28
2022-10-21T08:32:07.111Z,100083.28
2022-10-21T08:34:38.189Z,100080.00
2022-10-21T08:37:07.990Z,100073.89
2022-10-21T08:39:38.010Z,100067.88
2022-10-21T08:42:18.518Z,100065.84
2022-10-21T08:44:56.834Z,100055.55
2022-10-21T08:47:45.698Z,100055.25
2022-10-21T08:50:18.648Z,100048.75
2022-10-21T08:52:57.474Z,100043.05
2022-10-21T08:55:37.626Z,100043.05
2022-10-21T08:58:12.664Z,100043.67
2022-10-21T09:00:46.321Z,100042.67
2022-10-21T09:03:19.251Z,100036.56
2022-10-21T09:05:54.981Z,100032.41
2022-10-21T09:08:40.880Z,100032.21
2022-10-21T09:11:36.673Z,100032.41
2022-10-21T09:17:06.725Z,100023.61
2022-10-21T09:19:45.602Z,100030.27
2022-10-21T09:22:35.300Z,100024.79
2022-10-21T09:25:01.103Z,100025.41
2022-10-21T09:27:51.299Z,100013.18
2022-10-21T09:30:07.681Z,100005.94
2022-10-21T09:32:40.688Z,100009.88
2022-10-21T09:35:22.720Z,99998.77
2022-10-21T09:38:01.235Z,100003.64
2022-10-21T09:40:34.042Z,99973.34
2022-10-21T09:43:06.686Z,99973.34
2022-10-21T09:45:42.017Z,99980.55
2022-10-21T09:48:20.817Z,99982.53
2022-10-21T09:50:56.183Z,99987.68
2022-10-21T09:53:31.580Z,99992.66
2022-10-21T09:56:07.343Z,99996.73
2022-10-21T09:58:46.064Z,99981.05
2022-10-21T10:01:21.461Z,99984.67
2022-10-21T10:03:52.908Z,99991.17
2022-10-21T10:06:40.268Z,99993.77
2022-10-21T10:09:33.331Z,99982.93
2022-10-21T10:12:06.208Z,99971.84
2022-10-21T10:14:39.076Z,99974.74
2022-10-21T10:17:30.797Z,99949.79
2022-10-21T10:20:09.934Z,99949.79
2022-10-21T10:22:43.176Z,99936.91
2022-10-21T10:25:26.235Z,99947.77
2022-10-21T10:28:02.261Z,99949.80
2022-10-21T10:30:41.160Z,99945.40
2022-10-21T10:33:13.612Z,99951.68
2022-10-21T10:35:56.464Z,99949.53
2022-10-21T10:38:39.004Z,99946.58
2022-10-21T10:41:12.012Z,99946.33
2022-10-21T10:43:56.503Z,99940.91
2022-10-21T10:46:29.427Z,99936.31
2022-10-21T10:49:02.588Z,99936.31
2022-10-21T10:51:37.981Z,99935.04
2022-10-21T10:54:22.465Z,99934.47
2022-10-21T10:57:19.588Z,99928.98
2022-10-21T10:59:52.507Z,99927.27
2022-10-21T11:02:25.289Z,99919.14
2022-10-21T11:05:19.357Z,99904.36
2022-10-21T11:07:54.938Z,99890.18
2022-10-21T11:10:53.328Z,99891.30
2022-10-21T11:13:25.944Z,99891.94
2022-10-21T11:16:09.407Z,99900.36
2022-10-21T11:19:00.366Z,99894.70
2022-10-21T11:21:56.981Z,99902.61
2022-10-21T11:24:35.913Z,99902.61
2022-10-21T11:27:28.232Z,99895.47
2022-10-21T11:30:19.665Z,99898.61
2022-10-21T11:32:49.948Z,99888.92
2022-10-21T11:35:22.464Z,99887.42
2022-10-21T11:38:28.714Z,99888.12
2022-10-21T11:41:03.300Z,99882.09
2022-10-21T11:43:45.244Z,99878.51
2022-10-21T11:46:37.434Z,99878.70
2022-10-21T11:49:15.622Z,99874.22
2022-10-21T11:52:21.544Z,99865.91
2022-10-21T11:55:10.752Z,99874.21
2022-10-21T11:57:52.293Z,99874.08
2022-10-21T12:00:24.974Z,99875.33
2022-10-21T12:03:16.085Z,99873.03
2022-10-21T12:06:18.539Z,99871.09
2022-10-21T12:08:57.366Z,99877.14
2022-10-21T12:11:30.437Z,99885.35
2022-10-21T12:14:04.327Z,99884.33
2022-10-21T12:16:36.457Z,99884.07
2022-10-21T12:19:09.396Z,99887.30
2022-10-21T12:21:43.295Z,99890.08
2022-10-21T12:24:34.924Z,99875.93
2022-10-21T12:27:21.806Z,99870.52
2022-10-21T12:30:10.742Z,99861.49
2022-10-21T12:32:43.563Z,99869.61
2022-10-21T12:35:15.992Z,99871.41
2022-10-21T12:37:48.908Z,99879.90
2022-10-21T12:40:24.533Z,99886.92
2022-10-21T12:43:00.457Z,99896.52
2022-10-21T12:45:35.301Z,99895.94
2022-10-21T12:48:28.762Z,99890.30
2022-10-21T12:51:04.119Z,99867.62
2022-10-21T12:53:39.547Z,99855.36
2022-10-21T12:56:11.829Z,99845.73
2022-10-21T12:58:47.187Z,99845.75
2022-10-21T13:01:42.499Z,99849.92
2022-10-21T13:04:34.924Z,99846.58
2022-10-21T13:07:15.892Z,99858.74
2022-10-21T13:09:56.614Z,99867.73
2022-10-21T13:12:29.508Z,99866.83
2022-10-21T13:15:08.125Z,99877.94
2022-10-21T13:17:55.626Z,99884.94
2022-10-21T13:20:30.091Z,99889.99
2022-10-21T13:23:05.236Z,99887.33
2022-10-21T13:25:36.865Z,99886.11
2022-10-21T13:28:14.813Z,99884.36
2022-10-21T13:30:53.708Z,99885.05
2022-10-21T13:33:29.836Z,99883.02
2022-10-21T13:36:06.981Z,99886.92
2022-10-21T13:38:39.253Z,99888.02
2022-10-21T13:41:24.251Z,99894.11
2022-10-21T13:43:59.648Z,99899.19
2022-10-21T13:46:44.061Z,99901.21
2022-10-21T13:49:31.354Z,99907.78
2022-10-21T13:52:01.151Z,99906.61
2022-10-21T13:54:34.053Z,99906.80
2022-10-21T13:57:11.387Z,99911.48
2022-10-21T13:59:41.194Z,99910.64
2022-10-21T14:02:25.709Z,99912.14
2022-10-21T14:04:55.664Z,99905.52
2022-10-21T14:07:27.599Z,99905.52
2022-10-21T14:09:59.300Z,99913.07
2022-10-21T14:12:36.593Z,99907.44
2022-10-21T14:15:16.022Z,99907.08
2022-10-21T14:17:48.877Z,99911.02
2022-10-21T14:20:31.975Z,99911.23
2022-10-21T14:23:05.067Z,99917.87
2022-10-21T14:25:35.625Z,99922.08
2022-10-21T14:28:06.969Z,99912.20
2022-10-21T14:30:37.536Z,99912.20
2022-10-21T14:33:09.722Z,99920.21
2022-10-21T14:35:39.669Z,99922.58
2022-10-21T14:38:29.568Z,99921.34
2022-10-21T14:41:02.462Z,99915.55
2022-10-21T14:43:43.946Z,99923.31
2022-10-21T14:46:12.820Z,99930.77
2022-10-21T14:48:51.817Z,99933.28
2022-10-21T14:51:22.955Z,99936.92
2022-10-21T14:53:55.815Z,99932.37
2022-10-21T14:56:33.832Z,99930.19
2022-10-21T14:59:06.696Z,99933.42
2022-10-21T15:01:38.523Z,99932.27
2022-10-21T15:04:09.839Z,99937.66
2022-10-21T15:06:41.614Z,99932.44
2022-10-21T15:09:14.224Z,99929.19
2022-10-21T15:11:45.992Z,99937.41
2022-10-21T15:14:32.051Z,99931.11
2022-10-21T15:17:06.810Z,99926.47
2022-10-21T15:19:42.577Z,99931.91
2022-10-21T15:22:16.029Z,99932.48
2022-10-21T15:24:46.841Z,99938.45
2022-10-21T15:27:19.844Z,99935.68
2022-10-21T15:29:49.908Z,99934.17
2022-10-21T15:32:21.493Z,99934.17
2022-10-21T15:34:54.020Z,99932.83
2022-10-21T15:37:23.535Z,99929.82
2022-10-21T15:39:53.327Z,99931.14
2022-10-21T15:42:22.908Z,99935.00
2022-10-21T15:44:52.763Z,99936.36
2022-10-21T15:47:24.062Z,99928.18
2022-10-21T15:49:55.543Z,99933.91
2022-10-21T15:52:25.064Z,99926.00
2022-10-21T15:54:55.409Z,99927.49
2022-10-21T15:57:25.220Z,99927.49
2022-10-21T15:59:55.163Z,99921.10
2022-10-21T16:02:24.702Z,99920.97
2022-10-21T16:04:54.783Z,99917.30
2022-10-21T16:07:29.685Z,99916.89
2022-10-21T16:09:59.582Z,99914.20
2022-10-21T16:12:29.369Z,99913.84
2022-10-21T16:14:59.461Z,99912.13
2022-10-21T16:17:29.316Z,99912.86
2022-10-21T16:19:59.112Z,99911.42
2022-10-21T16:22:30.898Z,99906.58
2022-10-21T16:25:00.748Z,99905.19
2022-10-21T16:27:43.839Z,99907.66
2022-10-21T16:30:02.033Z,99908.15
2022-10-21T16:32:31.821Z,99908.15
2022-10-21T16:35:01.614Z,99906.52
2022-10-21T16:37:31.421Z,99894.25
2022-10-21T16:40:02.303Z,99894.25
2022-10-21T16:42:32.392Z,99882.36
2022-10-21T16:45:02.236Z,99882.36
2022-10-21T16:47:32.272Z,99886.20
2022-10-21T16:50:04.845Z,99882.76
2022-10-21T16:52:36.272Z,99878.27
2022-10-21T16:55:07.312Z,99889.56
2022-10-21T16:57:37.488Z,99883.54
2022-10-21T17:00:07.919Z,99893.41
2022-10-21T17:02:40.356Z,99889.31
2022-10-21T17:05:11.681Z,99893.84
2022-10-21T17:07:40.670Z,99893.23
2022-10-21T17:10:11.261Z,99894.56
2022-10-21T17:12:40.925Z,99899.34
2022-10-21T17:15:12.371Z,99897.80
2022-10-21T17:17:42.461Z,99892.37
2022-10-21T17:20:12.842Z,99902.25
2022-10-21T17:22:42.728Z,99906.58
2022-10-21T17:25:13.650Z,99909.23
2022-10-21T17:27:42.676Z,99904.31
2022-10-21T17:30:12.857Z,99903.15
2022-10-21T17:35:14.498Z,99903.92
2022-10-21T17:37:44.274Z,99903.92
2022-10-21T17:40:20.012Z,99905.44
2022-10-21T17:42:50.608Z,99913.38
2022-10-21T17:45:21.135Z,99913.38
2022-10-21T17:47:51.952Z,99914.78
2022-10-21T17:50:25.876Z,99921.20
2022-10-21T17:52:56.392Z,99918.45
2022-10-21T17:55:26.956Z,99916.47
2022-10-21T17:57:56.765Z,99916.64
2022-10-21T18:00:26.577Z,99913.67
2022-10-21T18:02:56.403Z,99916.80
2022-10-21T18:05:26.487Z,99922.36
2022-10-21T18:07:56.539Z,99919.41
2022-10-21T18:10:26.235Z,99906.22
2022-10-21T18:12:56.039Z,99909.30
2022-10-21T18:15:27.472Z,99896.78
2022-10-21T18:17:57.302Z,99892.27
2022-10-21T18:20:27.259Z,99878.43
2022-10-21T18:22:57.417Z,99854.38
2022-10-21T18:25:28.259Z,99876.94
2022-10-21T18:27:58.056Z,99858.48
2022-10-21T18:30:28.167Z,99863.39
2022-10-21T18:32:58.494Z,99861.04
2022-10-21T18:35:30.004Z,99861.04
2022-10-21T18:37:59.825Z,99856.30
2022-10-21T18:40:29.995Z,99860.62
2022-10-21T18:42:59.921Z,99858.34
2022-10-21T18:45:29.779Z,99871.05
2022-10-21T18:47:59.770Z,99853.96
2022-10-21T18:50:29.566Z,99842.45
2022-10-21T18:53:00.950Z,99845.72
2022-10-21T18:55:30.751Z,99834.17
2022-10-21T18:58:00.552Z,99834.17
2022-10-21T19:00:30.391Z,99840.55
2022-10-21T19:03:00.194Z,99858.70
2022-10-21T19:05:30.002Z,99866.41
2022-10-21T19:07:59.954Z,99897.62
2022-10-21T19:10:30.106Z,99897.62
2022-10-21T19:12:59.906Z,99898.35
2022-10-21T19:15:29.812Z,99901.13
2022-10-21T19:17:59.889Z,99911.53
2022-10-21T19:20:32.199Z,99907.98
2022-10-21T19:23:01.992Z,99907.06
2022-10-21T19:25:33.121Z,99910.66
2022-10-21T19:28:02.819Z,99909.70
2022-10-21T19:30:33.039Z,99915.00
2022-10-21T19:33:03.793Z,99918.97
2022-10-21T19:35:33.590Z,99915.12
2022-10-21T19:38:11.215Z,99918.13
2022-10-21T19:40:36.368Z,99916.17
2022-10-21T19:43:07.273Z,99921.25
2022-10-21T19:45:38.079Z,99924.83
2022-10-21T19:48:08.293Z,99929.03
2022-10-21T19:50:39.582Z,99933.96
2022-10-21T19:53:08.357Z,99927.47
2022-10-21T19:55:37.777Z,99928.67
2022-10-21T19:58:07.570Z,99932.27
2022-10-21T20:00:37.602Z,99933.97
2022-10-21T20:03:07.409Z,99925.90
2022-10-21T20:05:41.961Z,99925.66
2022-10-21T20:08:11.563Z,99924.70
2022-10-21T20:10:41.460Z,99920.72
2022-10-21T20:13:10.950Z,99926.38
2022-10-21T20:15:43.788Z,99918.38
2022-10-21T20:18:13.319Z,99919.11
2022-10-21T20:20:43.686Z,99911.58
2022-10-21T20:23:13.289Z,99914.45
2022-10-21T20:25:57.313Z,99909.18
2022-10-21T20:28:30.600Z,99912.06
2022-10-21T20:31:02.698Z,99919.77
2022-10-21T20:33:34.583Z,99914.94
2022-10-21T20:36:10.158Z,99910.74
2022-10-21T20:38:40.200Z,99908.22
2022-10-21T20:41:14.759Z,99908.69
2022-10-21T20:43:44.622Z,99905.09
2022-10-21T20:46:15.180Z,99908.09
2022-10-21T20:48:47.296Z,99902.09
2022-10-21T20:51:19.035Z,99905.56
2022-10-21T20:53:57.752Z,99912.67
2022-10-21T20:56:32.673Z,99913.27
2022-10-21T20:59:04.082Z,99903.23
2022-10-21T21:01:37.548Z,99898.47
2022-10-21T21:04:11.298Z,99895.34
2022-10-21T21:06:44.094Z,99898.36
2022-10-21T21:09:50.585Z,99895.95
2022-10-21T21:11:46.713Z,99889.38
2022-10-21T21:14:16.630Z,99890.94
2022-10-21T21:16:46.485Z,99881.92
2022-10-21T21:19:16.741Z,99884.69
2022-10-21T21:21:46.893Z,99885.36
2022-10-21T21:24:16.914Z,99887.69
2022-10-21T21:26:47.043Z,99888.84
2022-10-21T21:29:16.873Z,99886.08
2022-10-21T21:31:46.625Z,99878.02
2022-10-21T21:34:16.994Z,99875.96
2022-10-21T21:36:46.828Z,99875.08
2022-10-21T21:39:16.682Z,99876.44
2022-10-21T21:41:46.824Z,99869.86
2022-10-21T21:44:16.580Z,99865.85
2022-10-21T21:46:46.530Z,99859.72
2022-10-21T21:49:16.646Z,99853.45
2022-10-21T21:51:46.797Z,99851.06
2022-10-21T21:54:16.889Z,99852.98
2022-10-21T21:56:46.749Z,99855.63
2022-10-21T21:59:16.719Z,99855.52
2022-10-21T22:01:46.869Z,99862.24
2022-10-21T22:04:16.558Z,99860.95
2022-10-21T22:06:46.346Z,99852.50
2022-10-21T22:09:16.630Z,99841.67
2022-10-21T22:11:46.609Z,99859.49
2022-10-21T22:14:16.893Z,99858.86
2022-10-21T22:16:46.653Z,99853.70
2022-10-21T22:19:17.176Z,99856.59
2022-10-21T22:21:46.754Z,99855.66
2022-10-21T22:24:16.744Z,99855.81
2022-10-21T22:26:46.827Z,99849.34
2022-10-21T22:29:16.323Z,99852.33
2022-10-21T22:31:46.107Z,99859.06
2022-10-21T22:34:15.705Z,99859.67
2022-10-21T22:36:45.479Z,99855.81
2022-10-21T22:39:14.964Z,99858.23
2022-10-21T22:41:44.742Z,99857.27
2022-10-21T22:44:14.700Z,99854.56
2022-10-21T22:46:44.487Z,99848.95
2022-10-21T22:49:14.047Z,99856.53
2022-10-21T22:51:43.959Z,99849.80
2022-10-21T22:54:24.293Z,99855.45
2022-10-21T22:56:45.024Z,99855.45
2022-10-21T22:59:14.521Z,99851.25
2022-10-21T23:01:44.477Z,99850.94
2022-10-21T23:04:14.333Z,99853.73
2022-10-21T23:06:44.145Z,99853.70
2022-10-21T23:09:14.046Z,99862.55
2022-10-21T23:11:44.344Z,99861.06
2022-10-21T23:14:16.045Z,99854.14
2022-10-21T23:16:45.902Z,99859.92
2022-10-21T23:19:15.686Z,99863.77
2022-10-21T23:21:45.469Z,99866.89
2022-10-21T23:24:15.690Z,99875.09
2022-10-21T23:26:45.479Z,99874.84
2022-10-21T23:29:15.129Z,99884.24
2022-10-21T23:31:45.086Z,99881.58
2022-10-21T23:34:14.601Z,99872.45
2022-10-21T23:36:44.368Z,99864.50
2022-10-21T23:39:13.925Z,99861.75
2022-10-21T23:41:43.701Z,99866.56
2022-10-21T23:44:13.322Z,99865.83
2022-10-21T23:46:43.474Z,99875.92
2022-10-21T23:49:13.257Z,99874.70
2022-10-21T23:51:43.050Z,99877.11
2022-10-21T23:54:12.972Z,99880.32
2022-10-21T23:56:42.758Z,99875.48
2022-10-21T23:59:12.550Z,99873.69
